Pacific Journey — 3FFE — position and weather

sailwx.info

Track history (hours):
 
Tides and Currents Weather Stations Pressure Air Temp Water Temp Dewpoint Dewpoint Depression Visibility Wind Speed Wind Dir Waves Ship Positions

Pacific Journey

Last reported at 2016-Aug-29 20:05 UTC. Time now 2016-Aug-30 01:21 UTC.
Position N 32°23' W 017°51'.

Length 180 m; draft 9.3 m.

Type: Cargo ship. MMSI: 371467000.

Date/timePositionNaut miles runAvg speedWind from/ knotsBaromVisibWave heightAir tempDewpointWater temp
2016-Aug-29 20:05N 32°23' W 017°51'712.8
2016-Aug-29 19:32N 32°30' W 017°48'1414.0
2016-Aug-29 18:33N 32°42' W 017°42'1414.0
2016-Aug-29 17:34N 32°55' W 017°34'1413.3
2016-Aug-29 16:32N 33°07' W 017°27'1313.3
2016-Aug-29 15:33N 33°19' W 017°21'1713.4
2016-Aug-29 14:19N 33°34' W 017°12'1113.2
2016-Aug-29 13:28N 33°44' W 017°05'1212.9
2016-Aug-29 12:33N 33°54' W 016°58'1312.8
2016-Aug-29 11:33N 34°05' W 016°51'1212.4
2016-Aug-29 10:33N 34°16' W 016°44'1212.6
2016-Aug-29 09:33N 34°28' W 016°39'1512.4
2016-Aug-29 08:21N 34°42' W 016°32'1112.7
2016-Aug-29 07:31N 34°51' W 016°27'4412.9
2016-Aug-29 04:05N 35°31' W 016°03'  
2016-Aug-26 08:15N 48°15' W 006°45'911.9
2016-Aug-26 07:32N 48°23' W 006°38'1212.3
2016-Aug-26 06:33N 48°32' W 006°27'2512.7
2016-Aug-26 04:33N 48°49' W 005°58'1313.4
2016-Aug-26 03:34N 48°56' W 005°41'1313.1
2016-Aug-26 02:33N 49°03' W 005°24'1313.1
2016-Aug-26 01:34N 49°10' W 005°07'1312.6
2016-Aug-26 00:33N 49°16' W 004°50'1312.0
2016-Aug-25 23:31N 49°22' W 004°33'1511.8
2016-Aug-25 22:13N 49°30' W 004°12'812.0
2016-Aug-25 21:32N 49°34' W 004°02'1212.3
2016-Aug-25 20:33N 49°40' W 003°46'1313.1
2016-Aug-25 19:33N 49°47' W 003°28'1513.9
2016-Aug-25 18:30N 49°54' W 003°09'1314.1
2016-Aug-25 17:34N 49°60' W 002°50'1413.9
2016-Aug-25 16:33N 50°03' W 002°29'1312.8
2016-Aug-25 15:33N 50°07' W 002°10'1111.4
2016-Aug-25 14:33N 50°09' W 001°53'1010.5
2016-Aug-25 13:33N 50°13' W 001°37'10 9.9
2016-Aug-25 12:33N 50°15' W 001°22'1010.4
2016-Aug-25 11:33N 50°18' W 001°06'1212.0
2016-Aug-25 10:33N 50°21' W 000°48'1413.3
2016-Aug-25 09:32N 50°25' W 000°27'1414.1
2016-Aug-25 08:33N 50°29' W 000°07'1414.4
2016-Aug-25 07:33N 50°32' E 000°15'1413.9
2016-Aug-25 06:31N 50°37' E 000°36'2412.4
2016-Aug-25 04:33N 50°50' E 001°09'1110.9
2016-Aug-25 03:33N 50°57' E 001°22'1212.0
2016-Aug-25 02:34N 51°06' E 001°36'1413.6
2016-Aug-25 01:33N 51°16' E 001°50'1211.9
2016-Aug-25 00:33N 51°24' E 002°04'1212.3
2016-Aug-24 23:33N 51°21' E 002°23'1413.6
2016-Aug-24 22:33N 51°24' E 002°45'1111.3
2016-Aug-24 21:33N 51°25' E 003°03'1313.2
2016-Aug-24 20:33N 51°25' E 003°24'1211.6
2016-Aug-24 19:33N 51°25' E 003°42'9 8.9
2016-Aug-24 18:33N 51°23' E 003°56'4 4.1
2016-Aug-24 17:33N 51°23' E 004°03'7 6.7
2016-Aug-24 16:33N 51°22' E 004°13'3 2.9
2016-Aug-24 15:34N 51°21' E 004°17'1 1.3
2016-Aug-24 14:33N 51°20' E 004°18'3 3.0
2016-Aug-24 13:33N 51°17' E 004°20'0 0.0
2016-Aug-24 12:32N 51°17' E 004°20'0 0.0
2016-Aug-24 11:33N 51°17' E 004°20'0 0.0
2016-Aug-24 10:32N 51°17' E 004°20'0 0.0
2016-Aug-24 09:33N 51°17' E 004°20'0 0.0
2016-Aug-24 08:33N 51°17' E 004°20'0 0.0
2016-Aug-24 07:32N 51°17' E 004°20'0 0.0
2016-Aug-24 06:32N 51°17' E 004°20'0 0.0
2016-Aug-24 04:32N 51°17' E 004°20'0 0.0
2016-Aug-24 03:33N 51°17' E 004°20'0 0.0
2016-Aug-24 02:32N 51°17' E 004°20'0 0.0
2016-Aug-24 01:33N 51°17' E 004°20'0 0.0
2016-Aug-24 00:32N 51°17' E 004°20'0 0.0
2016-Aug-23 23:32N 51°17' E 004°20'0 0.0
2016-Aug-23 22:32N 51°17' E 004°20'0 0.0
2016-Aug-23 21:33N 51°17' E 004°20'0 0.0
2016-Aug-23 20:32N 51°17' E 004°20'0 0.0
2016-Aug-23 19:32N 51°17' E 004°20'0 0.0
2016-Aug-23 18:33N 51°17' E 004°20'0 0.0
2016-Aug-23 17:33N 51°17' E 004°20'0 0.0
2016-Aug-23 16:33N 51°17' E 004°20'0 0.0
2016-Aug-23 15:26N 51°17' E 004°20'0 0.0
2016-Aug-23 14:33N 51°17' E 004°20'0 0.0
2016-Aug-23 13:32N 51°17' E 004°20'0 0.0
2016-Aug-23 12:32N 51°17' E 004°20'0 0.0
2016-Aug-23 11:33N 51°17' E 004°20'0 0.0
2016-Aug-23 10:33N 51°17' E 004°20'0 0.0
2016-Aug-23 09:29N 51°17' E 004°20'0 0.0
2016-Aug-23 08:32N 51°17' E 004°20'0 0.0
2016-Aug-23 07:33N 51°17' E 004°20'0 0.0
2016-Aug-23 06:33N 51°17' E 004°20'0 0.0
2016-Aug-23 05:32N 51°17' E 004°20'0 0.0
2016-Aug-23 04:32N 51°17' E 004°20'0 0.0
2016-Aug-23 03:32N 51°17' E 004°20'0 0.0
2016-Aug-23 02:32N 51°17' E 004°20'0 0.0
2016-Aug-23 01:32N 51°17' E 004°20'0 0.0
2016-Aug-23 00:33N 51°17' E 004°20'0 0.0
2016-Aug-22 23:33N 51°17' E 004°20'0 0.0
2016-Aug-22 22:32N 51°17' E 004°20'0 0.0
2016-Aug-22 21:32N 51°17' E 004°20'0 0.0
2016-Aug-22 20:32N 51°17' E 004°20'0 0.0
2016-Aug-22 19:32N 51°17' E 004°20'0 0.0
2016-Aug-22 18:26N 51°17' E 004°20'0 0.0
2016-Aug-22 17:33N 51°17' E 004°20'0 0.0
2016-Aug-22 16:32N 51°17' E 004°20'0 0.0
2016-Aug-22 15:32N 51°17' E 004°20'0 0.0
2016-Aug-22 14:32N 51°17' E 004°20'0 0.0
2016-Aug-22 13:32N 51°17' E 004°20'0 0.0
2016-Aug-22 12:32N 51°17' E 004°20'0 0.0
2016-Aug-22 11:33N 51°17' E 004°20'0 0.0
2016-Aug-22 10:32N 51°17' E 004°20'0 0.0
2016-Aug-22 09:33N 51°17' E 004°20'0 0.0
2016-Aug-22 08:32N 51°17' E 004°20'0 0.0
2016-Aug-22 07:32N 51°17' E 004°20'0 0.0
2016-Aug-22 06:32N 51°17' E 004°20'0 0.0
2016-Aug-22 05:33N 51°17' E 004°20'0 0.0
2016-Aug-22 04:32N 51°17' E 004°20'0 0.0
2016-Aug-22 03:32N 51°17' E 004°20'0 0.0
2016-Aug-22 02:32N 51°17' E 004°20'0 0.0
2016-Aug-22 01:32N 51°17' E 004°20'0 0.0
2016-Aug-22 00:32N 51°17' E 004°20'0 0.0
2016-Aug-21 23:32N 51°17' E 004°20'0 0.0
2016-Aug-21 22:32N 51°17' E 004°20'0 0.0
2016-Aug-21 21:32N 51°17' E 004°20'0 0.0
2016-Aug-21 20:32N 51°17' E 004°20'0 0.0
2016-Aug-21 19:33N 51°17' E 004°20'0 0.0
2016-Aug-21 18:32N 51°17' E 004°20'0 0.0
2016-Aug-21 17:32N 51°17' E 004°20'0 0.0
2016-Aug-21 16:32N 51°17' E 004°20'0 0.0
2016-Aug-21 15:32N 51°17' E 004°20'0 0.0
2016-Aug-21 14:32N 51°17' E 004°20'0 0.0
2016-Aug-21 13:32N 51°17' E 004°20'0 0.0
2016-Aug-21 12:33N 51°17' E 004°20'0 0.0
2016-Aug-21 11:33N 51°17' E 004°20'0 0.0
2016-Aug-21 10:32N 51°17' E 004°20'0 0.0
2016-Aug-21 09:32N 51°17' E 004°20'0 0.0
2016-Aug-21 08:33N 51°17' E 004°20'0 0.0
2016-Aug-21 07:33N 51°17' E 004°20'0 0.0
2016-Aug-21 06:33N 51°17' E 004°20'0 0.0
2016-Aug-21 05:33N 51°17' E 004°20'0 0.0
2016-Aug-21 04:32N 51°17' E 004°20'0 0.0
2016-Aug-21 03:33N 51°17' E 004°20'0 0.0
2016-Aug-21 02:32N 51°17' E 004°20'0 0.0
2016-Aug-21 01:33N 51°17' E 004°20'0 0.0
2016-Aug-21 00:33N 51°17' E 004°20'0 0.0
2016-Aug-20 23:33N 51°17' E 004°20'0 0.0
2016-Aug-20 22:32N 51°17' E 004°20'0 0.0
2016-Aug-20 21:32N 51°17' E 004°20'0 0.0
2016-Aug-20 20:33N 51°17' E 004°20'0 0.0
2016-Aug-20 19:33N 51°17' E 004°20'0 0.0
2016-Aug-20 18:33N 51°17' E 004°20'0 0.0
2016-Aug-20 17:32N 51°17' E 004°20'0 0.0
2016-Aug-20 16:32N 51°17' E 004°20'0 0.0
2016-Aug-20 15:32N 51°17' E 004°20'0 0.0
2016-Aug-20 14:33N 51°17' E 004°20'0 0.0
2016-Aug-20 13:32N 51°17' E 004°20'0 0.0
2016-Aug-20 12:32N 51°17' E 004°20'0 0.0
2016-Aug-20 11:32N 51°17' E 004°20'0 0.0
2016-Aug-20 10:32N 51°17' E 004°20'0 0.0
2016-Aug-20 09:33N 51°17' E 004°20'0 0.0
2016-Aug-20 08:33N 51°17' E 004°20'0 0.0
2016-Aug-20 07:33N 51°17' E 004°20'0 0.0
2016-Aug-20 06:32N 51°17' E 004°20'0 0.0
2016-Aug-20 05:32N 51°17' E 004°20'0 0.1
2016-Aug-20 04:34N 51°17' E 004°21'4 4.1
2016-Aug-20 03:33N 51°21' E 004°17'0 0.4
2016-Aug-20 02:33N 51°21' E 004°17'8 8.4
2016-Aug-20 01:33N 51°22' E 004°03'8 8.1
2016-Aug-20 00:34N 51°21' E 003°51'2 1.8
2016-Aug-19 23:34N 51°19' E 003°50'6 6.1
2016-Aug-19 22:33N 51°13' E 003°48'7 6.5
2016-Aug-19 21:34N 51°07' E 003°45'1 1.4
2016-Aug-19 20:34N 51°05' E 003°45'  
Track history (hours):
 
Tides and Currents Weather Stations Pressure Air Temp Water Temp Dewpoint Dewpoint Depression Visibility Wind Speed Wind Dir Waves Ship Positions

Pacific Journey

Last reported at 2016-Aug-29 20:05 UTC. Time now 2016-Aug-30 01:21 UTC.
Position N 32°23' W 017°51'.

Length 180 m; draft 9.3 m.

Type: Cargo ship. MMSI: 371467000.

Date/timePositionNaut miles runAvg speedWind from/ knotsBaromVisibWave heightAir tempDewpointWater temp
2016-Aug-29 20:05N 32°23' W 017°51'712.8
2016-Aug-29 19:32N 32°30' W 017°48'1414.0
2016-Aug-29 18:33N 32°42' W 017°42'1414.0
2016-Aug-29 17:34N 32°55' W 017°34'1413.3
2016-Aug-29 16:32N 33°07' W 017°27'1313.3
2016-Aug-29 15:33N 33°19' W 017°21'1713.4
2016-Aug-29 14:19N 33°34' W 017°12'1113.2
2016-Aug-29 13:28N 33°44' W 017°05'1212.9
2016-Aug-29 12:33N 33°54' W 016°58'1312.8
2016-Aug-29 11:33N 34°05' W 016°51'1212.4
2016-Aug-29 10:33N 34°16' W 016°44'1212.6
2016-Aug-29 09:33N 34°28' W 016°39'1512.4
2016-Aug-29 08:21N 34°42' W 016°32'1112.7
2016-Aug-29 07:31N 34°51' W 016°27'4412.9
2016-Aug-29 04:05N 35°31' W 016°03'  
2016-Aug-26 08:15N 48°15' W 006°45'911.9
2016-Aug-26 07:32N 48°23' W 006°38'1212.3
2016-Aug-26 06:33N 48°32' W 006°27'2512.7
2016-Aug-26 04:33N 48°49' W 005°58'1313.4
2016-Aug-26 03:34N 48°56' W 005°41'1313.1
2016-Aug-26 02:33N 49°03' W 005°24'1313.1
2016-Aug-26 01:34N 49°10' W 005°07'1312.6
2016-Aug-26 00:33N 49°16' W 004°50'1312.0
2016-Aug-25 23:31N 49°22' W 004°33'1511.8
2016-Aug-25 22:13N 49°30' W 004°12'812.0
2016-Aug-25 21:32N 49°34' W 004°02'1212.3
2016-Aug-25 20:33N 49°40' W 003°46'1313.1
2016-Aug-25 19:33N 49°47' W 003°28'1513.9
2016-Aug-25 18:30N 49°54' W 003°09'1314.1
2016-Aug-25 17:34N 49°60' W 002°50'1413.9
2016-Aug-25 16:33N 50°03' W 002°29'1312.8
2016-Aug-25 15:33N 50°07' W 002°10'1111.4
2016-Aug-25 14:33N 50°09' W 001°53'1010.5
2016-Aug-25 13:33N 50°13' W 001°37'10 9.9
2016-Aug-25 12:33N 50°15' W 001°22'1010.4
2016-Aug-25 11:33N 50°18' W 001°06'1212.0
2016-Aug-25 10:33N 50°21' W 000°48'1413.3
2016-Aug-25 09:32N 50°25' W 000°27'1414.1
2016-Aug-25 08:33N 50°29' W 000°07'1414.4
2016-Aug-25 07:33N 50°32' E 000°15'1413.9
2016-Aug-25 06:31N 50°37' E 000°36'2412.4
2016-Aug-25 04:33N 50°50' E 001°09'1110.9
2016-Aug-25 03:33N 50°57' E 001°22'1212.0
2016-Aug-25 02:34N 51°06' E 001°36'1413.6
2016-Aug-25 01:33N 51°16' E 001°50'1211.9
2016-Aug-25 00:33N 51°24' E 002°04'1212.3
2016-Aug-24 23:33N 51°21' E 002°23'1413.6
2016-Aug-24 22:33N 51°24' E 002°45'1111.3
2016-Aug-24 21:33N 51°25' E 003°03'1313.2
2016-Aug-24 20:33N 51°25' E 003°24'1211.6
2016-Aug-24 19:33N 51°25' E 003°42'9 8.9
2016-Aug-24 18:33N 51°23' E 003°56'4 4.1
2016-Aug-24 17:33N 51°23' E 004°03'7 6.7
2016-Aug-24 16:33N 51°22' E 004°13'3 2.9
2016-Aug-24 15:34N 51°21' E 004°17'1 1.3
2016-Aug-24 14:33N 51°20' E 004°18'3 3.0
2016-Aug-24 13:33N 51°17' E 004°20'0 0.0
2016-Aug-24 12:32N 51°17' E 004°20'0 0.0
2016-Aug-24 11:33N 51°17' E 004°20'0 0.0
2016-Aug-24 10:32N 51°17' E 004°20'0 0.0
2016-Aug-24 09:33N 51°17' E 004°20'0 0.0
2016-Aug-24 08:33N 51°17' E 004°20'0 0.0
2016-Aug-24 07:32N 51°17' E 004°20'0 0.0
2016-Aug-24 06:32N 51°17' E 004°20'0 0.0
2016-Aug-24 04:32N 51°17' E 004°20'0 0.0
2016-Aug-24 03:33N 51°17' E 004°20'0 0.0
2016-Aug-24 02:32N 51°17' E 004°20'0 0.0
2016-Aug-24 01:33N 51°17' E 004°20'0 0.0
2016-Aug-24 00:32N 51°17' E 004°20'0 0.0
2016-Aug-23 23:32N 51°17' E 004°20'0 0.0
2016-Aug-23 22:32N 51°17' E 004°20'0 0.0
2016-Aug-23 21:33N 51°17' E 004°20'0 0.0
2016-Aug-23 20:32N 51°17' E 004°20'0 0.0
2016-Aug-23 19:32N 51°17' E 004°20'0 0.0
2016-Aug-23 18:33N 51°17' E 004°20'0 0.0
2016-Aug-23 17:33N 51°17' E 004°20'0 0.0
2016-Aug-23 16:33N 51°17' E 004°20'0 0.0
2016-Aug-23 15:26N 51°17' E 004°20'0 0.0
2016-Aug-23 14:33N 51°17' E 004°20'0 0.0
2016-Aug-23 13:32N 51°17' E 004°20'0 0.0
2016-Aug-23 12:32N 51°17' E 004°20'0 0.0
2016-Aug-23 11:33N 51°17' E 004°20'0 0.0
2016-Aug-23 10:33N 51°17' E 004°20'0 0.0
2016-Aug-23 09:29N 51°17' E 004°20'0 0.0
2016-Aug-23 08:32N 51°17' E 004°20'0 0.0
2016-Aug-23 07:33N 51°17' E 004°20'0 0.0
2016-Aug-23 06:33N 51°17' E 004°20'0 0.0
2016-Aug-23 05:32N 51°17' E 004°20'0 0.0
2016-Aug-23 04:32N 51°17' E 004°20'0 0.0
2016-Aug-23 03:32N 51°17' E 004°20'0 0.0
2016-Aug-23 02:32N 51°17' E 004°20'0 0.0
2016-Aug-23 01:32N 51°17' E 004°20'0 0.0
2016-Aug-23 00:33N 51°17' E 004°20'0 0.0
2016-Aug-22 23:33N 51°17' E 004°20'0 0.0
2016-Aug-22 22:32N 51°17' E 004°20'0 0.0
2016-Aug-22 21:32N 51°17' E 004°20'0 0.0
2016-Aug-22 20:32N 51°17' E 004°20'0 0.0
2016-Aug-22 19:32N 51°17' E 004°20'0 0.0
2016-Aug-22 18:26N 51°17' E 004°20'0 0.0
2016-Aug-22 17:33N 51°17' E 004°20'0 0.0
2016-Aug-22 16:32N 51°17' E 004°20'0 0.0
2016-Aug-22 15:32N 51°17' E 004°20'0 0.0
2016-Aug-22 14:32N 51°17' E 004°20'0 0.0
2016-Aug-22 13:32N 51°17' E 004°20'0 0.0
2016-Aug-22 12:32N 51°17' E 004°20'0 0.0
2016-Aug-22 11:33N 51°17' E 004°20'0 0.0
2016-Aug-22 10:32N 51°17' E 004°20'0 0.0
2016-Aug-22 09:33N 51°17' E 004°20'0 0.0
2016-Aug-22 08:32N 51°17' E 004°20'0 0.0
2016-Aug-22 07:32N 51°17' E 004°20'0 0.0
2016-Aug-22 06:32N 51°17' E 004°20'0 0.0
2016-Aug-22 05:33N 51°17' E 004°20'0 0.0
2016-Aug-22 04:32N 51°17' E 004°20'0 0.0
2016-Aug-22 03:32N 51°17' E 004°20'0 0.0
2016-Aug-22 02:32N 51°17' E 004°20'0 0.0
2016-Aug-22 01:32N 51°17' E 004°20'0 0.0
2016-Aug-22 00:32N 51°17' E 004°20'0 0.0
2016-Aug-21 23:32N 51°17' E 004°20'0 0.0
2016-Aug-21 22:32N 51°17' E 004°20'0 0.0
2016-Aug-21 21:32N 51°17' E 004°20'0 0.0
2016-Aug-21 20:32N 51°17' E 004°20'0 0.0
2016-Aug-21 19:33N 51°17' E 004°20'0 0.0
2016-Aug-21 18:32N 51°17' E 004°20'0 0.0
2016-Aug-21 17:32N 51°17' E 004°20'0 0.0
2016-Aug-21 16:32N 51°17' E 004°20'0 0.0
2016-Aug-21 15:32N 51°17' E 004°20'0 0.0
2016-Aug-21 14:32N 51°17' E 004°20'0 0.0
2016-Aug-21 13:32N 51°17' E 004°20'0 0.0
2016-Aug-21 12:33N 51°17' E 004°20'0 0.0
2016-Aug-21 11:33N 51°17' E 004°20'0 0.0
2016-Aug-21 10:32N 51°17' E 004°20'0 0.0
2016-Aug-21 09:32N 51°17' E 004°20'0 0.0
2016-Aug-21 08:33N 51°17' E 004°20'0 0.0
2016-Aug-21 07:33N 51°17' E 004°20'0 0.0
2016-Aug-21 06:33N 51°17' E 004°20'0 0.0
2016-Aug-21 05:33N 51°17' E 004°20'0 0.0
2016-Aug-21 04:32N 51°17' E 004°20'0 0.0
2016-Aug-21 03:33N 51°17' E 004°20'0 0.0
2016-Aug-21 02:32N 51°17' E 004°20'0 0.0
2016-Aug-21 01:33N 51°17' E 004°20'0 0.0
2016-Aug-21 00:33N 51°17' E 004°20'0 0.0
2016-Aug-20 23:33N 51°17' E 004°20'0 0.0
2016-Aug-20 22:32N 51°17' E 004°20'0 0.0
2016-Aug-20 21:32N 51°17' E 004°20'0 0.0
2016-Aug-20 20:33N 51°17' E 004°20'0 0.0
2016-Aug-20 19:33N 51°17' E 004°20'0 0.0
2016-Aug-20 18:33N 51°17' E 004°20'0 0.0
2016-Aug-20 17:32N 51°17' E 004°20'0 0.0
2016-Aug-20 16:32N 51°17' E 004°20'0 0.0
2016-Aug-20 15:32N 51°17' E 004°20'0 0.0
2016-Aug-20 14:33N 51°17' E 004°20'0 0.0
2016-Aug-20 13:32N 51°17' E 004°20'0 0.0
2016-Aug-20 12:32N 51°17' E 004°20'0 0.0
2016-Aug-20 11:32N 51°17' E 004°20'0 0.0
2016-Aug-20 10:32N 51°17' E 004°20'0 0.0
2016-Aug-20 09:33N 51°17' E 004°20'0 0.0
2016-Aug-20 08:33N 51°17' E 004°20'0 0.0
2016-Aug-20 07:33N 51°17' E 004°20'0 0.0
2016-Aug-20 06:32N 51°17' E 004°20'0 0.0
2016-Aug-20 05:32N 51°17' E 004°20'0 0.1
2016-Aug-20 04:34N 51°17' E 004°21'4 4.1
2016-Aug-20 03:33N 51°21' E 004°17'0 0.4
2016-Aug-20 02:33N 51°21' E 004°17'8 8.4
2016-Aug-20 01:33N 51°22' E 004°03'8 8.1
2016-Aug-20 00:34N 51°21' E 003°51'2 1.8
2016-Aug-19 23:34N 51°19' E 003°50'6 6.1
2016-Aug-19 22:33N 51°13' E 003°48'7 6.5
2016-Aug-19 21:34N 51°07' E 003°45'1 1.4
2016-Aug-19 20:34N 51°05' E 003°45'  

Dump ship's entire track history